sensor_id;sensor_type;location;lat;lon;timestamp;pressure;altitude;pressure_sealevel;temperature;humidity
58975;BME280;44751;52.236;5.178;2023-05-01T00:02:18;101730.00;;;9.71;100.00
58975;BME280;44751;52.236;5.178;2023-05-01T00:04:45;101728.56;;;9.76;100.00
58975;BME280;44751;52.236;5.178;2023-05-01T00:07:13;101717.13;;;9.64;100.00
58975;BME280;44751;52.236;5.178;2023-05-01T00:09:42;101721.25;;;9.68;100.00
58975;BME280;44751;52.236;5.178;2023-05-01T00:12:09;101713.03;;;9.60;100.00
58975;BME280;44751;52.236;5.178;2023-05-01T00:14:36;101719.91;;;9.54;100.00
58975;BME280;44751;52.236;5.178;2023-05-01T00:17:02;101707.63;;;9.42;100.00
58975;BME280;44751;52.236;5.178;2023-05-01T00:19:30;101700.25;;;9.44;100.00
58975;BME280;44751;52.236;5.178;2023-05-01T00:22:00;101702.72;;;9.37;100.00
58975;BME280;44751;52.236;5.178;2023-05-01T00:24:31;101702.00;;;9.35;100.00
58975;BME280;44751;52.236;5.178;2023-05-01T00:26:57;101703.38;;;9.39;100.00
58975;BME280;44751;52.236;5.178;2023-05-01T00:29:24;101694.06;;;9.34;100.00
58975;BME280;44751;52.236;5.178;2023-05-01T00:31:53;101693.91;;;9.35;100.00
58975;BME280;44751;52.236;5.178;2023-05-01T00:34:19;101690.69;;;9.32;100.00
58975;BME280;44751;52.236;5.178;2023-05-01T00:36:46;101685.34;;;9.22;100.00
58975;BME280;44751;52.236;5.178;2023-05-01T00:39:12;101688.34;;;9.19;100.00
58975;BME280;44751;52.236;5.178;2023-05-01T00:41:39;101683.25;;;9.15;100.00
58975;BME280;44751;52.236;5.178;2023-05-01T00:44:05;101680.81;;;9.22;100.00
58975;BME280;44751;52.236;5.178;2023-05-01T00:46:32;101676.31;;;9.13;100.00
58975;BME280;44751;52.236;5.178;2023-05-01T00:48:59;101671.75;;;9.23;100.00
58975;BME280;44751;52.236;5.178;2023-05-01T00:51:27;101669.06;;;9.23;100.00
58975;BME280;44751;52.236;5.178;2023-05-01T00:53:54;101665.34;;;9.24;100.00
58975;BME280;44751;52.236;5.178;2023-05-01T00:56:21;101655.25;;;9.08;100.00
58975;BME280;44751;52.236;5.178;2023-05-01T00:58:51;101656.94;;;9.09;100.00
58975;BME280;44751;52.236;5.178;2023-05-01T01:01:24;101655.97;;;9.00;100.00
58975;BME280;44751;52.236;5.178;2023-05-01T01:03:52;101653.38;;;9.09;100.00
58975;BME280;44751;52.236;5.178;2023-05-01T01:09:13;101642.13;;;8.95;100.00
58975;BME280;44751;52.236;5.178;2023-05-01T01:14:39;101642.56;;;8.90;100.00
58975;BME280;44751;52.236;5.178;2023-05-01T01:17:26;101639.19;;;8.88;100.00
58975;BME280;44751;52.236;5.178;2023-05-01T01:22:50;101629.88;;;8.83;100.00
58975;BME280;44751;52.236;5.178;2023-05-01T01:25:28;101623.34;;;8.85;100.00
58975;BME280;44751;52.236;5.178;2023-05-01T01:28:28;101625.06;;;8.76;100.00
58975;BME280;44751;52.236;5.178;2023-05-01T01:31:10;101619.28;;;8.71;100.00
58975;BME280;44751;52.236;5.178;2023-05-01T01:36:48;101610.50;;;8.69;100.00
58975;BME280;44751;52.236;5.178;2023-05-01T01:42:03;101601.31;;;8.72;100.00
58975;BME280;44751;52.236;5.178;2023-05-01T01:44:36;101599.09;;;8.57;100.00
58975;BME280;44751;52.236;5.178;2023-05-01T01:47:06;101596.81;;;8.52;100.00
58975;BME280;44751;52.236;5.178;2023-05-01T01:49:36;101594.41;;;8.59;100.00
58975;BME280;44751;52.236;5.178;2023-05-01T01:52:04;101590.31;;;8.45;100.00
58975;BME280;44751;52.236;5.178;2023-05-01T01:54:34;101572.75;;;8.51;100.00
58975;BME280;44751;52.236;5.178;2023-05-01T01:57:03;101588.19;;;8.49;100.00
58975;BME280;44751;52.236;5.178;2023-05-01T01:59:33;101582.97;;;8.47;100.00
58975;BME280;44751;52.236;5.178;2023-05-01T02:02:01;101576.63;;;8.38;100.00
58975;BME280;44751;52.236;5.178;2023-05-01T02:04:36;101576.72;;;8.47;100.00
58975;BME280;44751;52.236;5.178;2023-05-01T02:07:04;101565.13;;;8.46;100.00
58975;BME280;44751;52.236;5.178;2023-05-01T02:09:33;101565.56;;;8.42;100.00
58975;BME280;44751;52.236;5.178;2023-05-01T02:12:04;101566.19;;;8.35;100.00
58975;BME280;44751;52.236;5.178;2023-05-01T02:14:32;101554.00;;;8.31;100.00
58975;BME280;44751;52.236;5.178;2023-05-01T02:16:59;101560.94;;;8.34;100.00
58975;BME280;44751;52.236;5.178;2023-05-01T02:19:27;101548.63;;;8.31;100.00
58975;BME280;44751;52.236;5.178;2023-05-01T02:21:55;101544.66;;;8.35;100.00
58975;BME280;44751;52.236;5.178;2023-05-01T02:24:23;101547.03;;;8.38;100.00
58975;BME280;44751;52.236;5.178;2023-05-01T02:26:55;101537.00;;;8.40;100.00
58975;BME280;44751;52.236;5.178;2023-05-01T02:29:23;101532.06;;;8.36;100.00
58975;BME280;44751;52.236;5.178;2023-05-01T02:31:50;101538.13;;;8.38;100.00
58975;BME280;44751;52.236;5.178;2023-05-01T02:34:17;101529.09;;;8.29;100.00
58975;BME280;44751;52.236;5.178;2023-05-01T02:36:43;101527.09;;;8.31;100.00
58975;BME280;44751;52.236;5.178;2023-05-01T02:39:09;101518.75;;;8.34;100.00
58975;BME280;44751;52.236;5.178;2023-05-01T02:41:37;101513.72;;;8.21;100.00
58975;BME280;44751;52.236;5.178;2023-05-01T02:44:06;101515.97;;;8.26;100.00
58975;BME280;44751;52.236;5.178;2023-05-01T02:46:35;101510.69;;;8.34;100.00
58975;BME280;44751;52.236;5.178;2023-05-01T02:49:08;101495.94;;;8.38;100.00
58975;BME280;44751;52.236;5.178;2023-05-01T02:51:35;101492.06;;;8.51;100.00
58975;BME280;44751;52.236;5.178;2023-05-01T02:54:02;101495.59;;;8.61;100.00
58975;BME280;44751;52.236;5.178;2023-05-01T02:56:29;101483.97;;;8.61;100.00
58975;BME280;44751;52.236;5.178;2023-05-01T02:58:56;101479.09;;;8.74;100.00
58975;BME280;44751;52.236;5.178;2023-05-01T03:01:24;101483.78;;;8.72;100.00
58975;BME280;44751;52.236;5.178;2023-05-01T03:03:51;101481.94;;;8.73;100.00
58975;BME280;44751;52.236;5.178;2023-05-01T03:06:17;101477.16;;;8.67;100.00
58975;BME280;44751;52.236;5.178;2023-05-01T03:08:44;101477.84;;;8.69;100.00
58975;BME280;44751;52.236;5.178;2023-05-01T03:11:11;101479.22;;;8.55;100.00
58975;BME280;44751;52.236;5.178;2023-05-01T03:13:37;101480.84;;;8.65;100.00
58975;BME280;44751;52.236;5.178;2023-05-01T03:16:04;101478.25;;;8.74;100.00
58975;BME280;44751;52.236;5.178;2023-05-01T03:18:31;101472.66;;;8.85;100.00
58975;BME280;44751;52.236;5.178;2023-05-01T03:20:58;101471.50;;;8.88;100.00
58975;BME280;44751;52.236;5.178;2023-05-01T03:23:24;101468.59;;;8.99;100.00
58975;BME280;44751;52.236;5.178;2023-05-01T03:25:52;101472.66;;;8.85;100.00
58975;BME280;44751;52.236;5.178;2023-05-01T03:28:22;101467.63;;;8.72;100.00
58975;BME280;44751;52.236;5.178;2023-05-01T03:30:50;101476.16;;;8.68;100.00
58975;BME280;44751;52.236;5.178;2023-05-01T03:33:16;101466.44;;;8.57;100.00
58975;BME280;44751;52.236;5.178;2023-05-01T03:35:43;101462.34;;;8.52;100.00
58975;BME280;44751;52.236;5.178;2023-05-01T03:38:09;101451.91;;;8.49;100.00
58975;BME280;44751;52.236;5.178;2023-05-01T03:40:35;101452.34;;;8.45;100.00
58975;BME280;44751;52.236;5.178;2023-05-01T03:43:03;101454.50;;;8.31;100.00
58975;BME280;44751;52.236;5.178;2023-05-01T03:45:29;101463.59;;;8.30;100.00
58975;BME280;44751;52.236;5.178;2023-05-01T03:47:56;101453.63;;;8.12;100.00
58975;BME280;44751;52.236;5.178;2023-05-01T03:50:22;101456.13;;;8.24;100.00
58975;BME280;44751;52.236;5.178;2023-05-01T03:52:49;101458.84;;;8.14;100.00
58975;BME280;44751;52.236;5.178;2023-05-01T03:55:19;101444.03;;;8.10;100.00
58975;BME280;44751;52.236;5.178;2023-05-01T03:57:46;101450.34;;;8.19;100.00
58975;BME280;44751;52.236;5.178;2023-05-01T04:00:13;101439.91;;;8.16;100.00
58975;BME280;44751;52.236;5.178;2023-05-01T04:02:39;101440.53;;;7.99;100.00
58975;BME280;44751;52.236;5.178;2023-05-01T04:05:06;101446.75;;;8.00;100.00
58975;BME280;44751;52.236;5.178;2023-05-01T04:07:33;101445.34;;;7.96;100.00
58975;BME280;44751;52.236;5.178;2023-05-01T04:10:02;101437.97;;;7.98;100.00
58975;BME280;44751;52.236;5.178;2023-05-01T04:12:28;101441.81;;;7.95;100.00
58975;BME280;44751;52.236;5.178;2023-05-01T04:14:55;101441.28;;;7.92;100.00
58975;BME280;44751;52.236;5.178;2023-05-01T04:17:21;101444.09;;;7.90;100.00
58975;BME280;44751;52.236;5.178;2023-05-01T04:19:50;101443.25;;;7.90;100.00
58975;BME280;44751;52.236;5.178;2023-05-01T04:22:16;101443.28;;;7.80;100.00
58975;BME280;44751;52.236;5.178;2023-05-01T04:24:43;101435.22;;;7.80;100.00
58975;BME280;44751;52.236;5.178;2023-05-01T04:27:10;101442.69;;;7.86;100.00
58975;BME280;44751;52.236;5.178;2023-05-01T04:29:36;101437.88;;;7.90;100.00
58975;BME280;44751;52.236;5.178;2023-05-01T04:32:02;101440.66;;;7.98;100.00
58975;BME280;44751;52.236;5.178;2023-05-01T04:34:29;101429.66;;;7.91;100.00
58975;BME280;44751;52.236;5.178;2023-05-01T04:36:58;101431.16;;;8.04;100.00
58975;BME280;44751;52.236;5.178;2023-05-01T04:39:25;101440.22;;;8.03;100.00
58975;BME280;44751;52.236;5.178;2023-05-01T04:41:52;101435.09;;;8.09;100.00
58975;BME280;44751;52.236;5.178;2023-05-01T04:44:18;101432.22;;;8.21;100.00
58975;BME280;44751;52.236;5.178;2023-05-01T04:46:45;101433.47;;;8.26;100.00
58975;BME280;44751;52.236;5.178;2023-05-01T04:49:15;101435.41;;;8.34;100.00
58975;BME280;44751;52.236;5.178;2023-05-01T04:51:42;101434.53;;;8.44;100.00
58975;BME280;44751;52.236;5.178;2023-05-01T04:54:08;101434.91;;;8.49;100.00
58975;BME280;44751;52.236;5.178;2023-05-01T04:56:35;101439.56;;;8.57;100.00
58975;BME280;44751;52.236;5.178;2023-05-01T04:59:01;101443.19;;;8.65;100.00
58975;BME280;44751;52.236;5.178;2023-05-01T05:01:38;101438.34;;;8.69;100.00
58975;BME280;44751;52.236;5.178;2023-05-01T05:04:04;101442.09;;;8.76;100.00
58975;BME280;44751;52.236;5.178;2023-05-01T05:06:31;101432.13;;;8.87;100.00
58975;BME280;44751;52.236;5.178;2023-05-01T05:08:58;101429.38;;;8.97;100.00
58975;BME280;44751;52.236;5.178;2023-05-01T05:11:28;101431.81;;;9.08;100.00
58975;BME280;44751;52.236;5.178;2023-05-01T05:13:55;101436.56;;;9.14;100.00
58975;BME280;44751;52.236;5.178;2023-05-01T05:16:21;101443.09;;;9.30;100.00
58975;BME280;44751;52.236;5.178;2023-05-01T05:18:48;101446.94;;;9.27;100.00
58975;BME280;44751;52.236;5.178;2023-05-01T05:21:14;101442.16;;;9.39;100.00
58975;BME280;44751;52.236;5.178;2023-05-01T05:23:42;101437.47;;;9.41;100.00
58975;BME280;44751;52.236;5.178;2023-05-01T05:26:16;101434.94;;;9.40;100.00
58975;BME280;44751;52.236;5.178;2023-05-01T05:28:42;101434.63;;;9.43;100.00
58975;BME280;44751;52.236;5.178;2023-05-01T05:31:09;101434.13;;;9.48;100.00
58975;BME280;44751;52.236;5.178;2023-05-01T05:33:38;101425.59;;;9.52;100.00
58975;BME280;44751;52.236;5.178;2023-05-01T05:36:06;101420.72;;;9.56;100.00
58975;BME280;44751;52.236;5.178;2023-05-01T05:38:33;101430.88;;;9.62;100.00
58975;BME280;44751;52.236;5.178;2023-05-01T05:41:00;101426.59;;;9.78;100.00
58975;BME280;44751;52.236;5.178;2023-05-01T05:43:27;101424.34;;;9.73;100.00
58975;BME280;44751;52.236;5.178;2023-05-01T05:45:57;101421.03;;;9.79;100.00
58975;BME280;44751;52.236;5.178;2023-05-01T05:48:24;101428.00;;;9.90;100.00
58975;BME280;44751;52.236;5.178;2023-05-01T05:50:52;101426.50;;;9.96;100.00
58975;BME280;44751;52.236;5.178;2023-05-01T05:53:19;101420.34;;;10.12;100.00
58975;BME280;44751;52.236;5.178;2023-05-01T05:55:46;101420.88;;;10.16;100.00
58975;BME280;44751;52.236;5.178;2023-05-01T05:58:15;101419.09;;;10.33;100.00
58975;BME280;44751;52.236;5.178;2023-05-01T06:00:46;101413.19;;;10.38;100.00
58975;BME280;44751;52.236;5.178;2023-05-01T06:03:13;101419.81;;;10.52;100.00
58975;BME280;44751;52.236;5.178;2023-05-01T06:05:41;101406.00;;;10.55;100.00
58975;BME280;44751;52.236;5.178;2023-05-01T06:08:08;101414.13;;;10.71;100.00
58975;BME280;44751;52.236;5.178;2023-05-01T06:10:46;101410.41;;;10.64;100.00
58975;BME280;44751;52.236;5.178;2023-05-01T06:13:12;101411.94;;;10.75;100.00
58975;BME280;44751;52.236;5.178;2023-05-01T06:15:39;101408.06;;;10.69;100.00
58975;BME280;44751;52.236;5.178;2023-05-01T06:18:06;101404.19;;;10.64;100.00
58975;BME280;44751;52.236;5.178;2023-05-01T06:20:32;101401.13;;;10.58;100.00
58975;BME280;44751;52.236;5.178;2023-05-01T06:22:59;101405.88;;;10.73;100.00
58975;BME280;44751;52.236;5.178;2023-05-01T06:25:25;101402.84;;;10.76;100.00
58975;BME280;44751;52.236;5.178;2023-05-01T06:27:51;101408.75;;;10.80;100.00
58975;BME280;44751;52.236;5.178;2023-05-01T06:30:18;101407.56;;;10.82;100.00
58975;BME280;44751;52.236;5.178;2023-05-01T06:32:46;101422.25;;;10.80;100.00
58975;BME280;44751;52.236;5.178;2023-05-01T06:35:12;101412.63;;;10.77;100.00
58975;BME280;44751;52.236;5.178;2023-05-01T06:37:42;101411.94;;;10.67;100.00
58975;BME280;44751;52.236;5.178;2023-05-01T06:40:08;101422.22;;;10.71;100.00
58975;BME280;44751;52.236;5.178;2023-05-01T06:42:36;101421.91;;;10.75;100.00
58975;BME280;44751;52.236;5.178;2023-05-01T06:45:03;101409.94;;;10.77;100.00
58975;BME280;44751;52.236;5.178;2023-05-01T06:47:32;101412.97;;;10.91;100.00
58975;BME280;44751;52.236;5.178;2023-05-01T06:50:01;101412.66;;;11.02;100.00
58975;BME280;44751;52.236;5.178;2023-05-01T06:52:28;101407.59;;;11.16;100.00
58975;BME280;44751;52.236;5.178;2023-05-01T06:54:55;101399.13;;;11.02;100.00
58975;BME280;44751;52.236;5.178;2023-05-01T06:57:21;101402.53;;;11.13;100.00
58975;BME280;44751;52.236;5.178;2023-05-01T06:59:50;101390.72;;;11.14;100.00
58975;BME280;44751;52.236;5.178;2023-05-01T07:02:20;101392.53;;;11.21;100.00
58975;BME280;44751;52.236;5.178;2023-05-01T07:04:47;101394.91;;;11.24;100.00
58975;BME280;44751;52.236;5.178;2023-05-01T07:07:13;101397.94;;;11.46;100.00
58975;BME280;44751;52.236;5.178;2023-05-01T07:09:39;101400.78;;;11.53;100.00
58975;BME280;44751;52.236;5.178;2023-05-01T07:12:08;101396.41;;;11.60;100.00
58975;BME280;44751;52.236;5.178;2023-05-01T07:14:37;101391.28;;;11.74;100.00
58975;BME280;44751;52.236;5.178;2023-05-01T07:17:05;101391.56;;;11.87;100.00
58975;BME280;44751;52.236;5.178;2023-05-01T07:19:33;101392.03;;;11.99;100.00
58975;BME280;44751;52.236;5.178;2023-05-01T07:21:59;101390.19;;;11.92;100.00
58975;BME280;44751;52.236;5.178;2023-05-01T07:24:27;101390.16;;;12.00;100.00
58975;BME280;44751;52.236;5.178;2023-05-01T07:26:56;101388.47;;;11.99;100.00
58975;BME280;44751;52.236;5.178;2023-05-01T07:29:22;101389.81;;;12.03;100.00
58975;BME280;44751;52.236;5.178;2023-05-01T07:31:48;101385.25;;;12.04;100.00
58975;BME280;44751;52.236;5.178;2023-05-01T07:34:15;101392.13;;;12.23;100.00
58975;BME280;44751;52.236;5.178;2023-05-01T07:36:45;101384.25;;;12.36;100.00
58975;BME280;44751;52.236;5.178;2023-05-01T07:39:14;101390.00;;;12.42;100.00
58975;BME280;44751;52.236;5.178;2023-05-01T07:41:41;101394.28;;;12.59;100.00
58975;BME280;44751;52.236;5.178;2023-05-01T07:44:08;101398.75;;;12.75;100.00
58975;BME280;44751;52.236;5.178;2023-05-01T07:46:34;101392.81;;;12.95;100.00
58975;BME280;44751;52.236;5.178;2023-05-01T07:49:01;101396.47;;;12.64;100.00
58975;BME280;44751;52.236;5.178;2023-05-01T07:51:30;101395.66;;;12.78;100.00
58975;BME280;44751;52.236;5.178;2023-05-01T07:53:57;101394.94;;;13.08;100.00
58975;BME280;44751;52.236;5.178;2023-05-01T07:56:29;101399.88;;;13.04;100.00
58975;BME280;44751;52.236;5.178;2023-05-01T07:58:58;101400.31;;;13.32;100.00
58975;BME280;44751;52.236;5.178;2023-05-01T08:01:27;101397.22;;;13.58;100.00
58975;BME280;44751;52.236;5.178;2023-05-01T08:03:53;101399.66;;;13.29;100.00
58975;BME280;44751;52.236;5.178;2023-05-01T08:06:20;101398.19;;;13.42;100.00
58975;BME280;44751;52.236;5.178;2023-05-01T08:08:46;101401.44;;;13.37;100.00
58975;BME280;44751;52.236;5.178;2023-05-01T08:11:12;101416.19;;;13.58;100.00
58975;BME280;44751;52.236;5.178;2023-05-01T08:13:49;101404.94;;;13.61;100.00
58975;BME280;44751;52.236;5.178;2023-05-01T08:16:15;101408.72;;;13.22;100.00
58975;BME280;44751;52.236;5.178;2023-05-01T08:18:44;101411.03;;;13.48;100.00
58975;BME280;44751;52.236;5.178;2023-05-01T08:21:10;101393.09;;;13.62;100.00
58975;BME280;44751;52.236;5.178;2023-05-01T08:23:38;101405.16;;;13.90;100.00
58975;BME280;44751;52.236;5.178;2023-05-01T08:26:04;101402.91;;;14.09;100.00
58975;BME280;44751;52.236;5.178;2023-05-01T08:28:34;101409.97;;;14.25;100.00
58975;BME280;44751;52.236;5.178;2023-05-01T08:31:00;101403.28;;;14.42;100.00
58975;BME280;44751;52.236;5.178;2023-05-01T08:33:27;101403.56;;;13.80;100.00
58975;BME280;44751;52.236;5.178;2023-05-01T08:35:54;101401.78;;;14.03;100.00
58975;BME280;44751;52.236;5.178;2023-05-01T08:38:21;101404.09;;;14.21;100.00
58975;BME280;44751;52.236;5.178;2023-05-01T08:40:52;101400.97;;;14.24;100.00
58975;BME280;44751;52.236;5.178;2023-05-01T08:43:21;101403.44;;;14.56;100.00
58975;BME280;44751;52.236;5.178;2023-05-01T08:45:48;101409.13;;;14.39;100.00
58975;BME280;44751;52.236;5.178;2023-05-01T08:48:31;101404.78;;;14.45;100.00
58975;BME280;44751;52.236;5.178;2023-05-01T08:51:01;101408.25;;;14.39;100.00
58975;BME280;44751;52.236;5.178;2023-05-01T08:53:30;101414.94;;;14.21;100.00
58975;BME280;44751;52.236;5.178;2023-05-01T08:55:59;101418.38;;;14.67;100.00
58975;BME280;44751;52.236;5.178;2023-05-01T08:58:25;101409.50;;;14.95;100.00
58975;BME280;44751;52.236;5.178;2023-05-01T09:00:52;101414.03;;;14.88;99.15
58975;BME280;44751;52.236;5.178;2023-05-01T09:03:21;101421.66;;;14.62;100.00
58975;BME280;44751;52.236;5.178;2023-05-01T09:05:47;101415.94;;;15.38;100.00
58975;BME280;44751;52.236;5.178;2023-05-01T09:08:14;101412.59;;;15.71;98.71
58975;BME280;44751;52.236;5.178;2023-05-01T09:10:44;101415.91;;;15.66;95.66
58975;BME280;44751;52.236;5.178;2023-05-01T09:13:11;101410.97;;;15.48;97.54
58975;BME280;44751;52.236;5.178;2023-05-01T09:15:37;101408.34;;;15.97;98.24
58975;BME280;44751;52.236;5.178;2023-05-01T09:18:04;101409.88;;;16.06;97.43
58975;BME280;44751;52.236;5.178;2023-05-01T09:20:32;101401.75;;;16.20;98.50
58975;BME280;44751;52.236;5.178;2023-05-01T09:23:01;101403.38;;;16.00;94.49
58975;BME280;44751;52.236;5.178;2023-05-01T09:25:28;101405.94;;;15.80;95.35
58975;BME280;44751;52.236;5.178;2023-05-01T09:27:54;101404.72;;;15.90;94.69
58975;BME280;44751;52.236;5.178;2023-05-01T09:30:37;101413.69;;;15.83;97.43
58975;BME280;44751;52.236;5.178;2023-05-01T09:33:12;101405.38;;;15.92;98.33
58975;BME280;44751;52.236;5.178;2023-05-01T09:35:55;101410.75;;;15.78;94.76
58975;BME280;44751;52.236;5.178;2023-05-01T09:38:25;101416.84;;;15.87;95.40
58975;BME280;44751;52.236;5.178;2023-05-01T09:40:53;101411.53;;;16.00;97.48
58975;BME280;44751;52.236;5.178;2023-05-01T09:43:28;101413.91;;;16.17;96.03
58975;BME280;44751;52.236;5.178;2023-05-01T09:46:22;101419.50;;;16.71;96.25
58975;BME280;44751;52.236;5.178;2023-05-01T09:48:54;101417.28;;;17.29;94.50
58975;BME280;44751;52.236;5.178;2023-05-01T09:51:29;101419.97;;;17.63;90.39
58975;BME280;44751;52.236;5.178;2023-05-01T09:53:59;101415.78;;;17.47;88.09
58975;BME280;44751;52.236;5.178;2023-05-01T09:56:27;101419.13;;;17.62;88.78
58975;BME280;44751;52.236;5.178;2023-05-01T09:58:56;101416.78;;;17.79;91.89
58975;BME280;44751;52.236;5.178;2023-05-01T10:01:37;101414.13;;;17.46;91.43
58975;BME280;44751;52.236;5.178;2023-05-01T10:04:04;101419.13;;;17.55;92.39
58975;BME280;44751;52.236;5.178;2023-05-01T10:06:31;101423.47;;;18.50;90.12
58975;BME280;44751;52.236;5.178;2023-05-01T10:08:58;101418.03;;;19.40;85.54
58975;BME280;44751;52.236;5.178;2023-05-01T10:11:24;101425.66;;;19.31;88.53
58975;BME280;44751;52.236;5.178;2023-05-01T10:14:08;101424.28;;;18.57;86.94
58975;BME280;44751;52.236;5.178;2023-05-01T10:16:36;101421.81;;;18.42;85.03
58975;BME280;44751;52.236;5.178;2023-05-01T10:19:15;101421.34;;;18.58;86.93
58975;BME280;44751;52.236;5.178;2023-05-01T10:21:42;101428.16;;;19.58;85.15
58975;BME280;44751;52.236;5.178;2023-05-01T10:24:09;101426.78;;;19.67;83.22
58975;BME280;44751;52.236;5.178;2023-05-01T10:26:36;101432.84;;;19.51;83.25
58975;BME280;44751;52.236;5.178;2023-05-01T10:29:04;101439.97;;;19.07;80.93
58975;BME280;44751;52.236;5.178;2023-05-01T10:31:30;101444.16;;;18.71;81.76
58975;BME280;44751;52.236;5.178;2023-05-01T10:33:57;101437.69;;;18.65;81.69
58975;BME280;44751;52.236;5.178;2023-05-01T10:36:30;101436.31;;;19.65;81.04
58975;BME280;44751;52.236;5.178;2023-05-01T10:38:58;101443.03;;;19.43;82.48
58975;BME280;44751;52.236;5.178;2023-05-01T10:44:24;101442.81;;;18.48;82.06
58975;BME280;44751;52.236;5.178;2023-05-01T10:46:51;101448.31;;;18.41;86.01
58975;BME280;44751;52.236;5.178;2023-05-01T10:49:18;101446.00;;;17.59;86.13
58975;BME280;44751;52.236;5.178;2023-05-01T10:52:11;101450.09;;;18.22;89.25
58975;BME280;44751;52.236;5.178;2023-05-01T10:54:39;101447.72;;;18.32;90.34
58975;BME280;44751;52.236;5.178;2023-05-01T10:57:08;101439.84;;;17.90;89.62
58975;BME280;44751;52.236;5.178;2023-05-01T11:02:27;101444.75;;;17.34;90.54
58975;BME280;44751;52.236;5.178;2023-05-01T11:04:54;101447.88;;;16.97;91.31
58975;BME280;44751;52.236;5.178;2023-05-01T11:07:21;101447.88;;;16.97;91.12
58975;BME280;44751;52.236;5.178;2023-05-01T11:09:53;101453.63;;;16.60;90.60
58975;BME280;44751;52.236;5.178;2023-05-01T11:15:11;101447.09;;;16.41;93.70
58975;BME280;44751;52.236;5.178;2023-05-01T11:20:07;101456.50;;;15.96;98.94
58975;BME280;44751;52.236;5.178;2023-05-01T11:22:35;101456.16;;;15.78;100.00
58975;BME280;44751;52.236;5.178;2023-05-01T11:25:03;101454.31;;;15.85;100.00
58975;BME280;44751;52.236;5.178;2023-05-01T11:27:47;101465.63;;;15.88;100.00
58975;BME280;44751;52.236;5.178;2023-05-01T11:30:14;101456.31;;;15.98;100.00
58975;BME280;44751;52.236;5.178;2023-05-01T11:32:45;101456.09;;;15.99;100.00
58975;BME280;44751;52.236;5.178;2023-05-01T11:35:23;101456.75;;;16.02;100.00
58975;BME280;44751;52.236;5.178;2023-05-01T11:37:50;101453.94;;;15.88;100.00
58975;BME280;44751;52.236;5.178;2023-05-01T11:40:27;101458.09;;;15.84;100.00
58975;BME280;44751;52.236;5.178;2023-05-01T11:43:00;101458.25;;;15.25;100.00
58975;BME280;44751;52.236;5.178;2023-05-01T11:45:27;101456.56;;;15.24;100.00
58975;BME280;44751;52.236;5.178;2023-05-01T11:47:54;101458.88;;;15.49;100.00
58975;BME280;44751;52.236;5.178;2023-05-01T11:50:21;101469.66;;;15.14;100.00
58975;BME280;44751;52.236;5.178;2023-05-01T11:52:50;101466.19;;;14.98;100.00
58975;BME280;44751;52.236;5.178;2023-05-01T11:55:19;101473.44;;;14.76;100.00
58975;BME280;44751;52.236;5.178;2023-05-01T11:57:47;101468.25;;;14.59;100.00
58975;BME280;44751;52.236;5.178;2023-05-01T12:00:24;101478.78;;;14.69;100.00
58975;BME280;44751;52.236;5.178;2023-05-01T12:03:04;101480.47;;;14.70;100.00
58975;BME280;44751;52.236;5.178;2023-05-01T12:05:32;101472.06;;;14.65;100.00
58975;BME280;44751;52.236;5.178;2023-05-01T12:08:11;101478.25;;;14.58;100.00
58975;BME280;44751;52.236;5.178;2023-05-01T12:10:40;101470.06;;;14.37;100.00
58975;BME280;44751;52.236;5.178;2023-05-01T12:13:08;101482.03;;;14.27;100.00
58975;BME280;44751;52.236;5.178;2023-05-01T12:15:37;101475.94;;;14.40;100.00
58975;BME280;44751;52.236;5.178;2023-05-01T12:18:08;101475.28;;;14.53;100.00
58975;BME280;44751;52.236;5.178;2023-05-01T12:20:36;101472.78;;;14.37;100.00
58975;BME280;44751;52.236;5.178;2023-05-01T12:23:06;101478.28;;;14.43;100.00
58975;BME280;44751;52.236;5.178;2023-05-01T12:25:35;101473.22;;;14.40;100.00
58975;BME280;44751;52.236;5.178;2023-05-01T12:28:15;101469.94;;;14.45;100.00
58975;BME280;44751;52.236;5.178;2023-05-01T12:30:44;101466.03;;;14.69;100.00
58975;BME280;44751;52.236;5.178;2023-05-01T12:33:15;101471.22;;;15.01;100.00
58975;BME280;44751;52.236;5.178;2023-05-01T12:35:43;101465.84;;;15.08;100.00
58975;BME280;44751;52.236;5.178;2023-05-01T12:38:18;101469.13;;;15.25;100.00
58975;BME280;44751;52.236;5.178;2023-05-01T12:40:55;101466.28;;;15.33;100.00
58975;BME280;44751;52.236;5.178;2023-05-01T12:43:33;101470.69;;;15.34;100.00
58975;BME280;44751;52.236;5.178;2023-05-01T12:46:00;101466.53;;;15.39;100.00
58975;BME280;44751;52.236;5.178;2023-05-01T12:48:28;101463.09;;;15.52;100.00
58975;BME280;44751;52.236;5.178;2023-05-01T12:50:55;101456.81;;;15.51;100.00
58975;BME280;44751;52.236;5.178;2023-05-01T12:53:26;101453.78;;;15.68;100.00
58975;BME280;44751;52.236;5.178;2023-05-01T12:55:55;101459.72;;;15.78;100.00
58975;BME280;44751;52.236;5.178;2023-05-01T12:58:23;101460.16;;;15.82;100.00
58975;BME280;44751;52.236;5.178;2023-05-01T13:00:51;101448.41;;;16.10;100.00
58975;BME280;44751;52.236;5.178;2023-05-01T13:03:24;101449.94;;;16.26;100.00
58975;BME280;44751;52.236;5.178;2023-05-01T13:05:55;101461.56;;;16.48;100.00
58975;BME280;44751;52.236;5.178;2023-05-01T13:08:48;101452.94;;;16.45;100.00
58975;BME280;44751;52.236;5.178;2023-05-01T13:11:16;101458.13;;;16.95;100.00
58975;BME280;44751;52.236;5.178;2023-05-01T13:13:53;101458.91;;;16.75;100.00
58975;BME280;44751;52.236;5.178;2023-05-01T13:16:20;101460.38;;;16.78;100.00
58975;BME280;44751;52.236;5.178;2023-05-01T13:18:52;101459.16;;;16.87;100.00
58975;BME280;44751;52.236;5.178;2023-05-01T13:21:31;101450.13;;;16.87;100.00